Aplicació Alertes

Dades de l'estació automàtica el Prat de Llobregat

?
?
Resum diari 23:00 TU
Dades diàries de l'estació meteorològica
Temperatura mitjana 10.7 °C
Temperatura màxima 18.6 °C 13:27 TU
Temperatura mínima 6.0 °C 6:43 TU
Humitat relativa mitjana 70%
Precipitació acumulada 0.0 mm
Ratxa màxima del vent (10 m) 29.2 km/h - 303º 6:08 TU
Irradiació solar global 10.0 MJ/m2

El tram horari està expressat en Temps Universal (TU). Cal sumar una hora en horari d'hivern i dues en horari d'estiu per passar a l'hora oficial.

el Prat de Llobregat

Metadades estació meteorol´gica
Municipi El Prat de Llobregat
Comarca Baix Llobregat
Altitud 8 m
Data alta 22.03.2011
Estat actual Operativa
Dades de període
Període
TU
TM
°C
TX
°C
TN
°C
HRM
%
PPT
mm
VVM (10 m)
km/h
DVM (10 m)
graus
VVX (10 m)
km/h
RS
W/m2
00:00 - 00:30 7.7 7.9 7.5 77 0.0 10.4 293 18.4 0
00:30 - 01:00 7.6 8.1 7.5 77 0.0 10.4 296 19.8 0
01:00 - 01:30 7.9 8.2 7.5 75 0.0 9.0 296 17.3 0
01:30 - 02:00 8.3 8.6 7.9 72 0.0 11.9 302 22.7 0
02:00 - 02:30 8.2 8.4 7.9 73 0.0 12.2 309 24.8 0
02:30 - 03:00 8.3 8.5 8.1 72 0.0 12.2 306 25.2 0
03:00 - 03:30 8.2 8.4 8.1 71 0.0 13.7 313 26.6 0
03:30 - 04:00 8.3 8.4 8.2 71 0.0 13.3 309 27.7 0
04:00 - 04:30 8.0 8.2 7.8 71 0.0 13.0 305 26.3 0
04:30 - 05:00 7.1 7.8 6.2 74 0.0 11.2 283 22.0 0
05:00 - 05:30 7.0 7.4 6.4 76 0.0 9.4 295 21.2 0
05:30 - 06:00 7.1 7.5 6.6 74 0.0 12.6 303 24.5 0
06:00 - 06:30 7.0 7.2 6.7 74 0.0 15.5 291 29.2 0
06:30 - 07:00 6.8 7.3 6.0 76 0.0 14.8 287 25.2 8
07:00 - 07:30 7.2 7.5 7.0 74 0.0 14.4 293 26.3 51
07:30 - 08:00 8.1 8.4 7.6 71 0.0 15.1 299 26.6 121
08:00 - 08:30 9.0 10.2 8.3 69 0.0 11.5 295 23.0 170
08:30 - 09:00 10.5 11.2 10.2 64 0.0 11.5 304 24.1 227
09:00 - 09:30 11.5 11.8 11.2 60 0.0 12.6 309 25.6 328
09:30 - 10:00 12.3 12.9 11.7 58 0.0 11.9 304 26.3 388
10:00 - 10:30 13.6 14.3 13.0 55 0.0 13.7 318 28.1 434
10:30 - 11:00 14.7 15.3 14.3 52 0.0 13.3 317 25.9 467
11:00 - 11:30 15.8 16.3 15.3 49 0.0 12.6 323 23.4 486
11:30 - 12:00 16.5 16.8 16.2 48 0.0 12.2 321 25.2 489
12:00 - 12:30 17.0 17.5 16.7 46 0.0 11.9 339 20.9 481
12:30 - 13:00 17.6 17.8 17.1 44 0.0 11.2 342 19.8 453
13:00 - 13:30 18.1 18.6 17.5 41 0.0 9.7 326 20.5 414
13:30 - 14:00 18.1 18.3 17.6 44 0.0 8.3 286 18.0 354
14:00 - 14:30 17.3 17.5 17.0 54 0.0 8.3 212 14.8 278
14:30 - 15:00 16.7 17.1 16.3 58 0.0 11.2 202 15.5 212
15:00 - 15:30 15.9 16.4 15.5 64 0.0 10.8 215 16.2 140
15:30 - 16:00 15.0 15.5 14.6 68 0.0 7.9 206 14.4 69
16:00 - 16:30 13.3 14.5 11.6 74 0.0 5.0 194 8.6 13
16:30 - 17:00 10.8 11.6 10.2 84 0.0 1.4 197 5.0 0
17:00 - 17:30 9.5 10.3 8.7 89 0.0 0.7 195 2.5 0
17:30 - 18:00 8.2 9.0 7.6 92 0.0 4.0 284 8.6 0
18:00 - 18:30 9.5 10.2 8.2 90 0.0 5.4 302 9.4 0
18:30 - 19:00 10.3 10.8 9.6 82 0.0 7.2 297 11.5 0
19:00 - 19:30 9.7 10.6 8.5 80 0.0 5.8 282 10.1 0
19:30 - 20:00 8.7 8.9 8.5 83 0.0 6.8 288 13.3 0
20:00 - 20:30 9.0 9.1 8.8 80 0.0 7.2 293 14.8 0
20:30 - 21:00 8.8 9.0 8.6 79 0.0 10.1 287 16.6 0
21:00 - 21:30 8.8 8.8 8.6 77 0.0 10.1 292 16.9 0
21:30 - 22:00 8.4 8.6 8.3 78 0.0 11.9 290 19.4 0
22:00 - 22:30 8.2 8.3 8.1 78 0.0 11.9 292 20.9 0
22:30 - 23:00 8.0 8.1 7.9 78 0.0 11.9 292 19.8 0
23:00 - 23:30 7.8 7.9 7.7 79 0.0 10.8 292 20.5 0

Les dades en taronja només han passat un control de qualitat automàtic. Resta pendent la seva validació definitiva.